Time;durP1;ratioP1;P1;durP2;ratioP2;P2;SDS_P1;SDS_P2;PMS_P1;PMS_P2;Temp;Humidity;BMP_temperature;BMP_pressure;BME280_temperature;BME280_humidity;BME280_pressure;Samples;Min_cycle;Max_cycle;Signal;HPM_P1;HPM_P2
2023/07/08 00:00:53;;;;;;;6.68;3.17;;;16.80;99.90;;;;;;5110908;28;20051;-89
2023/07/08 00:03:20;;;;;;;10.52;3.70;;;16.80;99.90;;;;;;5094216;28;20495;-88
2023/07/08 00:05:49;;;;;;;6.90;3.03;;;16.80;99.90;;;;;;5110836;28;20039;-88
2023/07/08 00:08:19;;;;;;;5.95;3.33;;;16.80;99.90;;;;;;5110707;28;20130;-87
2023/07/08 00:10:46;;;;;;;5.80;3.22;;;16.80;99.90;;;;;;5110582;28;20131;-89
2023/07/08 00:13:13;;;;;;;5.88;3.35;;;16.80;99.90;;;;;;5093514;28;20571;-88
2023/07/08 00:15:41;;;;;;;5.45;3.35;;;16.70;99.90;;;;;;5094333;28;20396;-88
2023/07/08 00:18:14;;;;;;;6.78;3.50;;;16.70;99.90;;;;;;5093430;28;20031;-89
2023/07/08 00:20:46;;;;;;;6.05;3.80;;;16.70;99.90;;;;;;5110611;28;20036;-89
2023/07/08 00:23:13;;;;;;;7.93;3.40;;;16.70;99.90;;;;;;5110432;28;20044;-88
2023/07/08 00:25:40;;;;;;;7.65;3.47;;;16.60;99.90;;;;;;5111046;28;20039;-89
2023/07/08 00:28:14;;;;;;;7.10;3.50;;;16.50;99.90;;;;;;5093642;28;20043;-88
2023/07/08 00:30:41;;;;;;;7.68;3.28;;;16.50;99.90;;;;;;5110587;28;20044;-89
2023/07/08 00:33:09;;;;;;;7.35;3.65;;;16.50;99.90;;;;;;5093425;28;20085;-88
2023/07/08 00:35:36;;;;;;;9.07;3.60;;;16.50;99.90;;;;;;5110705;28;20074;-89
2023/07/08 00:38:19;;;;;;;5.72;3.22;;;16.50;99.90;;;;;;5110565;28;20057;-88
2023/07/08 00:40:52;;;;;;;6.22;3.33;;;16.50;99.90;;;;;;5110595;28;20042;-89
2023/07/08 00:43:30;;;;;;;7.32;3.55;;;16.40;99.90;;;;;;5110286;28;20143;-88
2023/07/08 00:46:23;;;;;;;7.18;3.70;;;16.50;99.90;;;;;;5110473;28;20076;-89
2023/07/08 00:48:53;;;;;;;9.73;3.90;;;16.40;99.90;;;;;;5110874;28;20475;-88
2023/07/08 00:51:21;;;;;;;6.07;3.40;;;16.40;99.90;;;;;;5110107;28;20230;-88
2023/07/08 00:53:47;;;;;;;8.20;3.72;;;16.40;99.90;;;;;;5093638;28;20039;-88
2023/07/08 00:56:23;;;;;;;7.07;3.70;;;16.40;99.90;;;;;;5112820;28;20032;-88
2023/07/08 00:58:58;;;;;;;5.40;3.28;;;16.40;99.90;;;;;;5114435;28;20044;-88
2023/07/08 01:01:28;;;;;;;7.88;4.00;;;16.40;99.90;;;;;;5113989;28;20850;-88
2023/07/08 01:04:02;;;;;;;7.38;3.33;;;16.30;99.90;;;;;;5097709;28;20055;-89
2023/07/08 01:06:34;;;;;;;6.80;3.60;;;16.30;99.90;;;;;;5114257;28;20492;-89
2023/07/08 01:09:05;;;;;;;6.32;3.58;;;16.30;99.90;;;;;;5113995;28;20453;-89
2023/07/08 01:11:33;;;;;;;7.20;3.50;;;16.30;99.90;;;;;;5098246;28;20078;-89
2023/07/08 01:14:03;;;;;;;7.63;4.03;;;16.30;99.90;;;;;;5097380;28;20039;-88
2023/07/08 01:16:33;;;;;;;9.25;3.63;;;16.30;99.90;;;;;;5131123;28;20051;-89
2023/07/08 01:19:02;;;;;;;9.80;4.18;;;16.20;99.90;;;;;;5131239;28;20127;-89
2023/07/08 01:21:35;;;;;;;7.03;3.58;;;16.30;99.90;;;;;;5113934;28;20043;-89
2023/07/08 01:24:05;;;;;;;7.32;3.45;;;16.30;99.90;;;;;;5113787;28;20161;-89
2023/07/08 01:26:35;;;;;;;7.13;3.67;;;16.20;99.90;;;;;;5130767;28;20048;-89
2023/07/08 01:29:03;;;;;;;5.68;3.20;;;16.20;99.90;;;;;;5113825;28;20465;-89
2023/07/08 01:31:30;;;;;;;6.93;3.78;;;16.20;99.90;;;;;;5113430;28;20117;-88
2023/07/08 01:33:57;;;;;;;7.18;3.80;;;16.10;99.90;;;;;;5097012;28;20032;-89
2023/07/08 01:36:24;;;;;;;6.20;3.70;;;16.20;99.90;;;;;;5097180;28;20072;-88
2023/07/08 01:38:51;;;;;;;6.65;3.67;;;16.10;99.90;;;;;;5097214;28;20122;-88
2023/07/08 01:41:17;;;;;;;9.45;4.13;;;16.10;99.90;;;;;;5096503;28;20082;-89
2023/07/08 01:43:44;;;;;;;7.63;3.95;;;16.10;99.90;;;;;;5097132;28;20052;-89
2023/07/08 01:46:19;;;;;;;9.13;4.00;;;16.10;99.90;;;;;;5096714;28;20109;-89
2023/07/08 01:48:51;;;;;;;7.00;4.07;;;16.10;99.90;;;;;;5113485;28;20051;-88
2023/07/08 01:51:19;;;;;;;6.72;4.30;;;16.00;99.90;;;;;;5112731;28;20047;-88
2023/07/08 01:53:46;;;;;;;8.20;3.95;;;16.00;99.90;;;;;;5113647;28;20101;-89
2023/07/08 01:56:14;;;;;;;8.40;4.05;;;16.00;99.90;;;;;;5096335;28;20036;-88
2023/07/08 01:58:41;;;;;;;10.15;4.10;;;15.90;99.90;;;;;;5113406;28;20067;-89
2023/07/08 02:01:08;;;;;;;9.77;4.30;;;15.90;99.90;;;;;;5113578;28;20123;-89
2023/07/08 02:03:35;;;;;;;6.15;3.95;;;15.90;99.90;;;;;;5096474;28;20127;-88
2023/07/08 02:06:03;;;;;;;8.18;4.38;;;15.90;99.90;;;;;;5096026;28;20047;-88
2023/07/08 02:08:30;;;;;;;11.20;4.13;;;15.90;99.90;;;;;;5096342;28;20036;-89
2023/07/08 02:10:57;;;;;;;7.30;3.88;;;15.90;99.90;;;;;;5096262;28;20507;-88
2023/07/08 02:13:25;;;;;;;9.25;4.00;;;15.90;99.90;;;;;;5096060;28;20036;-89
2023/07/08 02:15:51;;;;;;;8.30;4.50;;;15.90;99.90;;;;;;5096352;28;20040;-89
2023/07/08 02:18:18;;;;;;;11.50;4.30;;;15.90;99.90;;;;;;5096111;28;20032;-89
2023/07/08 02:20:46;;;;;;;6.80;4.20;;;15.80;99.90;;;;;;5096241;28;20040;-89
2023/07/08 02:23:14;;;;;;;7.03;4.22;;;15.80;99.90;;;;;;5112508;28;20095;-89
2023/07/08 02:25:41;;;;;;;7.18;4.05;;;15.80;99.90;;;;;;5096107;28;20046;-89
2023/07/08 02:28:08;;;;;;;8.70;4.20;;;15.70;99.90;;;;;;5096000;28;20036;-89
2023/07/08 02:30:34;;;;;;;10.32;4.60;;;15.70;99.90;;;;;;5078768;28;20101;-88
2023/07/08 02:33:01;;;;;;;9.65;4.35;;;15.70;99.90;;;;;;5095766;28;20076;-89
2023/07/08 02:35:30;;;;;;;10.68;4.60;;;15.70;99.90;;;;;;5095566;28;20032;-89
2023/07/08 02:37:57;;;;;;;8.90;4.60;;;15.70;99.90;;;;;;5095717;28;20047;-89
2023/07/08 02:40:25;;;;;;;6.45;3.97;;;15.70;99.90;;;;;;5112681;28;20036;-89
2023/07/08 02:42:51;;;;;;;7.32;4.30;;;15.60;99.90;;;;;;5095602;28;20067;-89
2023/07/08 02:45:19;;;;;;;7.63;4.15;;;15.70;99.90;;;;;;5078525;28;20040;-88
2023/07/08 02:47:45;;;;;;;8.88;5.00;;;15.70;99.90;;;;;;5095996;28;20467;-88
2023/07/08 02:50:13;;;;;;;7.55;4.80;;;15.60;99.90;;;;;;5062571;28;20079;-88
2023/07/08 02:52:39;;;;;;;8.02;4.32;;;15.60;99.90;;;;;;5078426;28;20488;-88
2023/07/08 02:55:06;;;;;;;7.35;4.45;;;15.60;99.90;;;;;;5078507;28;20127;-89
2023/07/08 02:57:33;;;;;;;8.38;4.60;;;15.60;99.90;;;;;;5061778;28;20662;-89
2023/07/08 03:00:00;;;;;;;8.13;4.40;;;15.60;99.90;;;;;;5111782;28;20043;-89
2023/07/08 03:02:27;;;;;;;8.25;4.60;;;15.60;99.90;;;;;;5078140;28;20165;-89
2023/07/08 03:04:54;;;;;;;10.80;4.57;;;15.60;99.90;;;;;;5061953;28;20097;-89
2023/07/08 03:07:21;;;;;;;8.98;4.40;;;15.60;99.90;;;;;;5061476;28;20148;-88
2023/07/08 03:09:47;;;;;;;8.02;4.65;;;15.60;99.90;;;;;;5061964;28;20364;-89
2023/07/08 03:12:14;;;;;;;10.10;4.90;;;15.60;99.90;;;;;;5061880;28;20169;-89
2023/07/08 03:14:41;;;;;;;8.05;4.70;;;15.60;99.90;;;;;;5061310;28;20044;-88
2023/07/08 03:17:08;;;;;;;11.07;5.30;;;15.60;99.90;;;;;;5078163;28;20473;-89
2023/07/08 03:19:34;;;;;;;10.65;5.07;;;15.60;99.90;;;;;;5077016;28;20101;-89
2023/07/08 03:22:05;;;;;;;7.30;4.35;;;15.50;99.90;;;;;;5094911;28;20090;-89
2023/07/08 03:24:31;;;;;;;8.65;5.25;;;15.50;99.90;;;;;;5094349;28;20040;-90
2023/07/08 03:27:00;;;;;;;8.93;5.35;;;15.50;99.90;;;;;;5061918;28;20040;-89
2023/07/08 03:29:27;;;;;;;7.47;5.03;;;15.50;99.90;;;;;;5078071;28;20044;-90
2023/07/08 03:31:53;;;;;;;9.27;4.60;;;15.50;99.90;;;;;;5078317;28;20142;-89
2023/07/08 03:34:20;;;;;;;8.15;4.50;;;15.50;99.90;;;;;;5061800;28;20102;-89
2023/07/08 03:36:49;;;;;;;8.93;4.75;;;15.50;99.90;;;;;;5061456;28;20078;-89
2023/07/08 03:39:23;;;;;;;8.13;4.93;;;15.60;99.90;;;;;;5077677;28;20754;-89
2023/07/08 03:41:51;;;;;;;8.57;4.65;;;15.60;99.90;;;;;;5094586;28;20047;-89
2023/07/08 03:44:18;;;;;;;9.82;5.18;;;15.50;99.90;;;;;;5077627;28;20095;-88
2023/07/08 03:46:46;;;;;;;8.95;5.10;;;15.50;99.90;;;;;;5077891;28;20072;-89
2023/07/08 03:49:13;;;;;;;9.75;5.03;;;15.50;99.90;;;;;;5094701;28;20048;-89
2023/07/08 03:51:41;;;;;;;8.95;4.93;;;15.50;99.90;;;;;;5061056;28;20093;-89
2023/07/08 03:54:12;;;;;;;10.50;5.25;;;15.50;99.90;;;;;;5094422;28;20511;-89
2023/07/08 03:56:39;;;;;;;8.25;5.30;;;15.50;99.90;;;;;;5094112;28;20523;-89
2023/07/08 03:59:06;;;;;;;10.93;4.80;;;15.60;99.90;;;;;;5094463;28;20058;-89
2023/07/08 04:01:33;;;;;;;9.57;5.13;;;15.50;99.90;;;;;;5060939;28;20047;-89
2023/07/08 04:04:00;;;;;;;9.90;5.68;;;15.50;99.90;;;;;;5077582;28;20043;-89
2023/07/08 04:06:28;;;;;;;9.20;5.43;;;15.50;99.90;;;;;;5061153;28;20040;-89
2023/07/08 04:08:55;;;;;;;8.40;4.85;;;15.50;99.90;;;;;;5093945;28;20040;-89
2023/07/08 04:11:23;;;;;;;8.68;4.88;;;15.50;99.90;;;;;;5093853;28;20101;-90
2023/07/08 04:13:50;;;;;;;7.72;5.05;;;15.50;99.90;;;;;;5077680;28;20032;-89
2023/07/08 04:16:21;;;;;;;10.10;4.85;;;15.50;99.90;;;;;;5093846;28;20479;-89
2023/07/08 04:18:50;;;;;;;7.20;5.10;;;15.60;99.90;;;;;;5110164;28;20036;-89
2023/07/08 04:21:18;;;;;;;8.32;5.07;;;15.60;99.90;;;;;;5077949;28;20047;-89
2023/07/08 04:23:44;;;;;;;9.73;5.13;;;15.60;99.90;;;;;;5060323;28;20089;-89
2023/07/08 04:26:11;;;;;;;9.43;4.85;;;15.60;99.90;;;;;;5077399;28;20039;-89
2023/07/08 04:28:38;;;;;;;10.05;5.10;;;15.70;99.90;;;;;;5077333;28;20060;-90
2023/07/08 04:31:05;;;;;;;8.60;4.72;;;15.70;99.90;;;;;;5093564;28;20040;-89
2023/07/08 04:33:32;;;;;;;7.50;4.93;;;15.70;99.90;;;;;;5094170;28;20088;-89
2023/07/08 04:35:59;;;;;;;9.00;4.90;;;15.70;99.90;;;;;;5061228;28;20047;-89
2023/07/08 04:38:26;;;;;;;10.32;5.00;;;15.80;99.90;;;;;;5060988;28;20051;-90
2023/07/08 04:40:54;;;;;;;9.93;5.03;;;15.80;99.90;;;;;;5077133;28;20196;-89
2023/07/08 04:43:21;;;;;;;8.07;4.72;;;15.80;99.90;;;;;;5106737;28;20057;-89
2023/07/08 04:45:52;;;;;;;7.82;4.90;;;15.90;99.90;;;;;;5090200;28;20040;-89
2023/07/08 04:48:21;;;;;;;9.20;4.47;;;15.90;99.90;;;;;;5090047;28;20040;-90
2023/07/08 04:50:50;;;;;;;10.75;4.82;;;15.90;99.90;;;;;;5073562;28;20127;-88
2023/07/08 04:53:17;;;;;;;7.30;4.53;;;16.00;99.90;;;;;;5090339;28;20102;-89
2023/07/08 04:55:56;;;;;;;8.18;4.60;;;16.00;99.90;;;;;;5073435;28;20033;-90
2023/07/08 04:58:23;;;;;;;9.88;4.93;;;16.00;99.90;;;;;;5074370;28;20127;-89
2023/07/08 05:00:49;;;;;;;7.82;4.40;;;16.20;99.90;;;;;;5073685;28;20068;-89
2023/07/08 05:03:16;;;;;;;10.00;4.97;;;16.10;99.90;;;;;;5057282;28;20083;-90
2023/07/08 05:05:43;;;;;;;8.05;4.80;;;16.10;99.90;;;;;;5073509;28;20049;-89
2023/07/08 05:08:11;;;;;;;7.30;4.30;;;16.20;99.90;;;;;;5056872;28;20044;-89
2023/07/08 05:10:39;;;;;;;8.00;4.63;;;16.20;99.90;;;;;;5089810;28;20098;-89
2023/07/08 05:13:06;;;;;;;7.15;4.85;;;16.30;99.90;;;;;;5090028;28;20032;-89
2023/07/08 05:15:32;;;;;;;11.23;4.63;;;16.30;99.90;;;;;;5090296;28;20043;-90
2023/07/08 05:17:59;;;;;;;8.95;4.82;;;16.40;99.90;;;;;;5056455;28;20085;-89
2023/07/08 05:20:26;;;;;;;7.68;4.40;;;16.40;99.90;;;;;;5056820;28;20033;-89
2023/07/08 05:22:53;;;;;;;7.57;4.43;;;16.50;99.90;;;;;;5056651;28;20055;-90
2023/07/08 05:25:32;;;;;;;10.80;5.10;;;16.50;99.90;;;;;;5056824;28;20576;-89
2023/07/08 05:27:59;;;;;;;7.28;4.18;;;16.60;99.90;;;;;;5072882;28;20036;-89
2023/07/08 05:30:26;;;;;;;10.85;4.80;;;16.70;99.90;;;;;;5056711;28;20950;-91
2023/07/08 05:32:53;;;;;;;9.98;4.90;;;16.80;99.90;;;;;;5056539;28;20123;-89
2023/07/08 05:35:20;;;;;;;7.43;4.68;;;16.80;99.90;;;;;;5056980;28;20047;-90
2023/07/08 05:37:47;;;;;;;7.88;4.75;;;16.90;99.90;;;;;;5056830;28;20041;-90
2023/07/08 05:40:13;;;;;;;6.28;3.88;;;16.90;99.90;;;;;;5072914;28;20036;-90
2023/07/08 05:42:40;;;;;;;8.70;4.15;;;16.90;99.90;;;;;;5109067;28;20051;-90
2023/07/08 05:45:07;;;;;;;8.20;4.53;;;17.10;99.90;;;;;;5076532;28;20118;-90
2023/07/08 05:47:34;;;;;;;13.50;4.40;;;17.10;99.90;;;;;;5077099;28;20051;-90
2023/07/08 05:50:01;;;;;;;7.25;4.32;;;17.20;99.90;;;;;;5060432;28;20036;-90
2023/07/08 05:52:28;;;;;;;7.80;4.60;;;17.20;99.90;;;;;;5093210;28;20127;-90
2023/07/08 05:54:55;;;;;;;8.52;4.45;;;17.30;99.90;;;;;;5076539;28;20063;-90
2023/07/08 05:57:23;;;;;;;7.93;4.30;;;17.40;99.90;;;;;;5076889;28;20076;-90
2023/07/08 05:59:50;;;;;;;6.70;4.32;;;17.50;99.90;;;;;;5092959;28;20033;-90
2023/07/08 06:02:19;;;;;;;8.63;4.50;;;17.50;99.90;;;;;;5076388;28;20044;-89
2023/07/08 06:04:46;;;;;;;7.95;4.55;;;17.50;99.90;;;;;;5076706;28;20050;-89
2023/07/08 06:07:12;;;;;;;6.93;4.70;;;17.70;99.90;;;;;;5059864;28;20058;-89
2023/07/08 06:09:39;;;;;;;8.90;4.20;;;17.80;99.90;;;;;;5109635;28;20382;-89
2023/07/08 06:12:06;;;;;;;8.80;3.97;;;17.90;99.90;;;;;;5075824;28;20040;-89
2023/07/08 06:14:33;;;;;;;10.57;4.30;;;18.00;99.90;;;;;;5076217;28;20040;-87
2023/07/08 06:16:59;;;;;;;7.53;4.10;;;18.20;99.90;;;;;;5059097;28;20373;-87
2023/07/08 06:19:26;;;;;;;8.18;3.90;;;18.20;99.90;;;;;;5059499;28;20052;-89
2023/07/08 06:21:53;;;;;;;6.40;3.70;;;18.40;99.90;;;;;;5075972;28;20054;-89
2023/07/08 06:24:20;;;;;;;8.32;4.20;;;18.50;99.90;;;;;;5075976;28;20132;-89
2023/07/08 06:26:47;;;;;;;7.05;4.05;;;18.60;99.90;;;;;;5076450;28;20044;-89
2023/07/08 06:29:15;;;;;;;7.03;4.13;;;18.60;99.90;;;;;;5092039;28;20506;-89
2023/07/08 06:31:42;;;;;;;9.57;4.00;;;18.80;99.90;;;;;;5071070;28;20041;-90
2023/07/08 06:34:09;;;;;;;6.78;3.75;;;18.80;99.90;;;;;;5090899;28;20032;-89
2023/07/08 06:36:35;;;;;;;6.78;4.53;;;18.90;99.90;;;;;;5087728;28;20039;-89
2023/07/08 06:39:02;;;;;;;7.25;3.58;;;19.10;99.90;;;;;;5060013;28;20040;-89
2023/07/08 06:41:29;;;;;;;6.43;3.50;;;19.10;99.90;;;;;;5097198;28;20068;-89
2023/07/08 06:43:56;;;;;;;8.40;3.88;;;19.20;99.90;;;;;;5061751;28;20094;-89
2023/07/08 06:46:23;;;;;;;9.27;3.58;;;19.40;99.90;;;;;;5079090;28;20103;-88
2023/07/08 06:48:50;;;;;;;8.05;3.47;;;19.50;99.90;;;;;;5079097;28;20079;-89
2023/07/08 06:51:16;;;;;;;5.65;3.38;;;19.70;99.90;;;;;;5078125;28;20079;-89
2023/07/08 06:53:43;;;;;;;6.75;3.53;;;19.90;99.90;;;;;;5060396;28;20048;-86
2023/07/08 06:56:10;;;;;;;7.32;3.90;;;19.90;99.90;;;;;;5059020;28;20086;-85
2023/07/08 06:58:36;;;;;;;6.13;3.33;;;20.10;99.90;;;;;;5072200;28;20086;-83
2023/07/08 07:01:03;;;;;;;9.65;3.40;;;20.20;99.90;;;;;;5058990;28;20036;-84
2023/07/08 07:03:30;;;;;;;7.10;3.22;;;20.30;99.90;;;;;;5116735;28;20040;-84
2023/07/08 07:05:57;;;;;;;8.48;3.78;;;20.40;99.90;;;;;;5108123;28;20047;-83
2023/07/08 07:08:23;;;;;;;5.57;3.20;;;20.50;99.90;;;;;;5111308;28;20066;-83
2023/07/08 07:10:50;;;;;;;4.90;3.13;;;20.50;99.90;;;;;;5111629;28;20047;-85
2023/07/08 07:13:17;;;;;;;8.02;3.38;;;20.70;99.90;;;;;;5111378;28;20043;-84
2023/07/08 07:15:44;;;;;;;6.18;3.22;;;20.80;99.90;;;;;;5111527;28;20047;-84
2023/07/08 07:18:12;;;;;;;13.43;3.40;;;20.90;99.90;;;;;;5112260;28;20501;-86
2023/07/08 07:20:48;;;;;;;7.78;3.08;;;21.00;99.90;;;;;;5099532;28;20042;-85
2023/07/08 07:23:15;;;;;;;7.97;3.30;;;21.20;99.90;;;;;;5110907;28;20384;-84
2023/07/08 07:25:42;;;;;;;6.20;3.20;;;21.30;99.90;;;;;;5104394;28;20039;-87
2023/07/08 07:28:08;;;;;;;6.78;2.95;;;21.50;99.90;;;;;;5111174;28;20093;-86
2023/07/08 07:30:35;;;;;;;6.00;3.10;;;21.60;99.90;;;;;;5078116;28;20122;-86
2023/07/08 07:33:02;;;;;;;7.40;3.17;;;21.70;99.90;;;;;;5077546;28;20039;-86
2023/07/08 07:35:29;;;;;;;5.47;2.97;;;21.90;99.90;;;;;;5094889;28;20119;-85
2023/07/08 07:37:55;;;;;;;5.93;2.85;;;22.00;99.90;;;;;;5078304;28;20130;-86
2023/07/08 07:40:22;;;;;;;6.25;2.80;;;22.10;99.90;;;;;;5094888;28;20042;-87
2023/07/08 07:42:49;;;;;;;5.43;2.97;;;22.20;99.90;;;;;;5095154;28;20086;-86
2023/07/08 07:45:16;;;;;;;6.03;2.85;;;22.40;99.90;;;;;;5111341;28;20130;-86
2023/07/08 07:47:43;;;;;;;4.45;2.88;;;22.50;99.90;;;;;;5128204;28;20874;-85
2023/07/08 07:50:10;;;;;;;6.40;2.92;;;22.60;99.90;;;;;;5094864;28;20039;-86
2023/07/08 07:52:36;;;;;;;9.65;3.20;;;22.80;99.90;;;;;;5094530;28;20135;-86
2023/07/08 07:55:04;;;;;;;7.60;2.97;;;23.00;99.90;;;;;;5094791;28;20456;-87
2023/07/08 07:57:30;;;;;;;10.75;2.70;;;23.10;99.90;;;;;;5111697;28;20036;-87
2023/07/08 07:59:57;;;;;;;4.78;2.60;;;23.20;99.90;;;;;;5077328;28;20035;-86
2023/07/08 08:02:24;;;;;;;4.25;2.80;;;23.30;99.90;;;;;;5094235;28;20067;-87
2023/07/08 08:04:51;;;;;;;5.35;2.95;;;23.50;99.90;;;;;;5057247;28;20040;-86
2023/07/08 08:07:17;;;;;;;6.47;2.85;;;23.70;99.90;;;;;;5073604;28;20039;-86
2023/07/08 08:09:44;;;;;;;5.05;2.85;;;23.80;99.90;;;;;;5091082;28;20036;-86
2023/07/08 08:12:12;;;;;;;6.22;2.83;;;23.90;99.90;;;;;;5073466;28;20097;-86
2023/07/08 08:14:39;;;;;;;4.50;2.70;;;24.10;99.90;;;;;;5106415;28;20036;-85
2023/07/08 08:17:05;;;;;;;5.22;2.60;;;24.20;99.90;;;;;;5073367;28;20040;-87
2023/07/08 08:19:35;;;;;;;6.05;2.53;;;24.30;99.90;;;;;;5090303;28;20123;-85
2023/07/08 08:22:02;;;;;;;5.20;2.70;;;24.40;99.90;;;;;;5080551;28;20070;-85
2023/07/08 08:24:28;;;;;;;7.57;2.90;;;24.50;99.90;;;;;;5092646;28;20075;-86
2023/07/08 08:26:55;;;;;;;4.40;2.35;;;24.70;99.90;;;;;;5093513;28;20134;-86
2023/07/08 08:29:22;;;;;;;5.60;2.75;;;24.80;99.90;;;;;;5092057;28;20791;-86
2023/07/08 08:31:50;;;;;;;7.05;2.88;;;24.80;99.90;;;;;;5093282;28;20073;-88
2023/07/08 08:34:17;;;;;;;5.88;2.88;;;24.90;99.90;;;;;;5083090;28;20032;-86
2023/07/08 08:36:45;;;;;;;5.35;2.70;;;25.00;99.90;;;;;;5091469;28;20124;-87
2023/07/08 08:39:13;;;;;;;5.60;2.75;;;25.20;99.90;;;;;;5094063;28;20043;-86
2023/07/08 08:41:42;;;;;;;5.55;2.97;;;25.20;99.90;;;;;;5093386;28;20089;-85
2023/07/08 08:44:15;;;;;;;5.10;2.60;;;25.20;99.90;;;;;;5109218;28;20055;-85
2023/07/08 08:47:06;;;;;;;3.97;2.63;;;25.40;99.90;;;;;;5110042;28;20522;-86
2023/07/08 08:49:47;;;;;;;5.07;2.47;;;25.50;99.90;;;;;;5110268;28;20079;-87
2023/07/08 08:52:14;;;;;;;5.43;2.78;;;25.60;99.90;;;;;;5110235;28;20043;-86
2023/07/08 08:54:43;;;;;;;5.57;2.85;;;25.80;99.90;;;;;;5127781;28;20762;-87
2023/07/08 08:57:37;;;;;;;5.35;2.60;;;25.90;99.90;;;;;;5076670;28;20039;-85
2023/07/08 09:00:05;;;;;;;4.65;2.50;;;26.10;99.90;;;;;;5066765;28;20048;-86
2023/07/08 09:02:47;;;;;;;4.85;2.45;;;26.30;99.90;;;;;;5076648;28;20086;-87
2023/07/08 09:05:15;;;;;;;4.43;2.70;;;26.30;99.20;;;;;;5108667;28;20090;-87
2023/07/08 09:08:09;;;;;;;6.03;2.65;;;26.40;99.90;;;;;;5109915;28;20108;-85
2023/07/08 09:11:23;;;;;;;3.92;2.58;;;26.50;99.60;;;;;;5127025;28;20493;-85
2023/07/08 09:13:52;;;;;;;6.57;2.53;;;26.60;98.20;;;;;;5072798;28;20087;-86
2023/07/08 09:16:43;;;;;;;6.15;2.38;;;26.70;99.60;;;;;;5111062;28;20035;-87
2023/07/08 09:19:14;;;;;;;4.72;2.60;;;27.00;98.00;;;;;;5130851;28;20056;-86
2023/07/08 09:21:53;;;;;;;5.90;2.50;;;27.20;99.40;;;;;;5113990;28;20040;-87
2023/07/08 09:24:49;;;;;;;5.53;2.33;;;27.20;99.20;;;;;;5114141;28;20047;-86
2023/07/08 09:27:16;;;;;;;6.65;2.60;;;27.30;98.00;;;;;;5097923;28;20580;-87
2023/07/08 09:29:43;;;;;;;5.05;2.60;;;27.40;98.60;;;;;;5081435;28;20078;-88
2023/07/08 09:32:19;;;;;;;4.57;2.63;;;27.50;98.10;;;;;;5114523;28;20036;-87
2023/07/08 09:34:55;;;;;;;5.63;2.83;;;27.70;97.20;;;;;;5113452;28;20032;-87
2023/07/08 09:37:27;;;;;;;4.53;2.30;;;27.70;97.40;;;;;;5130895;28;20047;-86
2023/07/08 09:39:55;;;;;;;5.40;2.65;;;27.80;97.80;;;;;;5130718;28;20118;-86
2023/07/08 09:42:28;;;;;;;4.43;2.40;;;27.90;97.70;;;;;;5129936;28;20406;-87
2023/07/08 09:44:57;;;;;;;5.20;2.53;;;27.90;97.20;;;;;;5113673;28;20043;-86
2023/07/08 09:47:36;;;;;;;4.47;2.63;;;28.00;97.30;;;;;;5113617;28;20067;-87
2023/07/08 09:50:15;;;;;;;6.43;2.40;;;28.10;97.10;;;;;;5113991;28;20040;-87
2023/07/08 09:52:42;;;;;;;3.75;2.63;;;28.20;96.80;;;;;;5114155;28;20075;-87
2023/07/08 09:55:11;;;;;;;5.43;3.00;;;28.30;96.90;;;;;;5131151;28;20127;-87
2023/07/08 09:57:39;;;;;;;4.57;2.50;;;28.30;96.10;;;;;;5096922;28;20122;-87
2023/07/08 10:00:12;;;;;;;5.30;2.28;;;28.40;96.70;;;;;;5097643;28;20118;-86
2023/07/08 10:02:43;;;;;;;6.73;2.70;;;28.50;96.00;;;;;;5112622;28;20039;-84
2023/07/08 10:05:23;;;;;;;5.53;2.70;;;28.70;95.70;;;;;;5096658;28;20044;-85
2023/07/08 10:07:55;;;;;;;4.22;2.47;;;28.80;95.90;;;;;;5106214;28;20692;-85
2023/07/08 10:10:37;;;;;;;5.00;2.53;;;29.00;95.60;;;;;;5104859;28;20040;-86
2023/07/08 10:13:15;;;;;;;5.28;2.65;;;29.10;95.30;;;;;;5088295;28;20052;-85
2023/07/08 10:15:50;;;;;;;6.60;2.70;;;29.10;95.50;;;;;;5089308;28;20209;-87
2023/07/08 10:18:23;;;;;;;4.28;2.40;;;29.20;95.10;;;;;;5100975;28;20040;-86
2023/07/08 10:21:07;;;;;;;4.35;2.40;;;29.30;95.30;;;;;;5073482;28;20046;-87
2023/07/08 10:23:56;;;;;;;4.32;2.50;;;29.40;95.10;;;;;;5072725;28;20036;-89
2023/07/08 10:26:30;;;;;;;4.72;2.50;;;29.40;94.10;;;;;;5079600;28;20609;-85
2023/07/08 10:29:19;;;;;;;3.53;2.40;;;29.40;94.20;;;;;;5100985;28;20039;-87
2023/07/08 10:32:10;;;;;;;4.95;2.70;;;29.30;94.40;;;;;;5125462;28;20123;-86
2023/07/08 10:34:50;;;;;;;4.88;2.80;;;29.30;94.20;;;;;;5104414;28;20039;-87
2023/07/08 10:37:32;;;;;;;4.57;2.60;;;29.50;94.50;;;;;;5128421;28;20043;-88
2023/07/08 10:40:06;;;;;;;4.55;2.40;;;29.60;94.70;;;;;;5100130;28;20392;-86
2023/07/08 10:42:56;;;;;;;5.07;2.65;;;29.70;94.20;;;;;;5106928;28;20511;-86
2023/07/08 10:45:34;;;;;;;5.00;2.50;;;29.70;94.80;;;;;;5091986;28;20463;-88
2023/07/08 10:48:23;;;;;;;5.25;2.92;;;29.90;94.30;;;;;;5091366;28;20043;-87
2023/07/08 10:51:21;;;;;;;5.18;2.72;;;30.00;94.70;;;;;;5093010;28;20044;-89
2023/07/08 10:54:10;;;;;;;4.65;2.85;;;30.20;94.20;;;;;;5094212;28;20094;-89
2023/07/08 10:56:39;;;;;;;4.70;2.90;;;30.30;94.40;;;;;;5093951;28;20126;-88
2023/07/08 10:59:38;;;;;;;6.55;2.72;;;30.20;93.70;;;;;;5094130;28;20044;-88
2023/07/08 11:02:59;;;;;;;4.85;2.70;;;30.10;93.40;;;;;;5093661;28;20063;-88
2023/07/08 11:05:42;;;;;;;5.53;3.00;;;30.20;93.60;;;;;;5084571;28;20044;-89
2023/07/08 11:08:29;;;;;;;4.85;2.90;;;30.30;94.00;;;;;;5074403;28;20566;-88
2023/07/08 11:11:33;;;;;;;4.43;2.92;;;30.20;92.80;;;;;;5073342;28;20132;-89
2023/07/08 11:14:25;;;;;;;7.05;2.63;;;30.20;93.30;;;;;;5073453;28;20164;-89
2023/07/08 11:17:19;;;;;;;5.57;2.70;;;30.40;93.30;;;;;;5073258;28;20049;-89
2023/07/08 11:19:56;;;;;;;5.10;2.78;;;30.30;92.80;;;;;;5073535;28;20049;-89
2023/07/08 11:22:25;;;;;;;5.55;2.90;;;30.40;93.10;;;;;;5074100;28;20050;-89
2023/07/08 11:24:55;;;;;;;4.22;2.55;;;30.40;93.10;;;;;;5090889;28;20128;-89
2023/07/08 11:27:27;;;;;;;5.07;2.97;;;30.50;92.80;;;;;;5073995;28;20051;-89
2023/07/08 11:30:03;;;;;;;6.60;3.25;;;30.60;93.20;;;;;;5090726;28;20068;-88
2023/07/08 11:32:32;;;;;;;6.70;3.10;;;30.60;92.20;;;;;;5089873;28;20047;-90
2023/07/08 11:35:03;;;;;;;4.38;2.90;;;30.60;92.80;;;;;;5073789;28;20067;-88
2023/07/08 11:37:30;;;;;;;5.68;2.70;;;30.60;92.80;;;;;;5073588;28;20036;-88
2023/07/08 11:40:00;;;;;;;5.68;3.08;;;30.70;92.70;;;;;;5056374;28;20048;-89
2023/07/08 11:42:38;;;;;;;5.72;3.00;;;30.70;92.30;;;;;;5091400;28;20080;-89
2023/07/08 11:45:27;;;;;;;6.55;3.03;;;30.90;91.70;;;;;;5093665;28;20571;-89
2023/07/08 11:48:11;;;;;;;5.90;2.60;;;31.00;92.40;;;;;;5093410;28;20040;-89
2023/07/08 11:50:41;;;;;;;6.88;2.63;;;31.00;92.00;;;;;;5092680;28;20043;-88
2023/07/08 11:53:11;;;;;;;5.63;2.80;;;31.10;91.90;;;;;;5093119;28;20404;-88
2023/07/08 11:55:48;;;;;;;5.45;3.10;;;31.10;91.60;;;;;;5092625;28;20680;-88
2023/07/08 11:58:23;;;;;;;4.88;2.88;;;31.10;91.50;;;;;;5093232;28;20488;-90
2023/07/08 12:01:09;;;;;;;6.57;3.20;;;31.20;91.20;;;;;;5093167;28;20054;-89
2023/07/08 12:03:39;;;;;;;6.88;3.00;;;31.20;90.70;;;;;;5092054;28;20495;-87
2023/07/08 12:06:27;;;;;;;8.52;2.85;;;31.20;91.10;;;;;;5074131;28;20040;-87
2023/07/08 12:08:56;;;;;;;4.57;2.55;;;31.20;90.80;;;;;;5091173;28;20065;-88
2023/07/08 12:11:35;;;;;;;5.95;2.92;;;31.30;91.00;;;;;;5079993;28;20052;-86
2023/07/08 12:14:04;;;;;;;6.00;2.85;;;31.30;90.70;;;;;;5053859;28;20569;-87
2023/07/08 12:16:32;;;;;;;5.05;2.80;;;31.40;90.80;;;;;;5069836;28;20041;-86
2023/07/08 12:19:01;;;;;;;6.25;2.97;;;31.40;91.20;;;;;;5069490;28;20115;-87
2023/07/08 12:21:27;;;;;;;4.68;2.80;;;31.40;91.30;;;;;;5071058;28;20041;-86
2023/07/08 12:23:54;;;;;;;5.10;3.10;;;31.60;90.90;;;;;;5070001;28;20090;-86
2023/07/08 12:26:24;;;;;;;5.47;2.90;;;31.70;90.50;;;;;;5069094;28;20048;-86
2023/07/08 12:28:51;;;;;;;5.13;3.15;;;31.70;90.40;;;;;;5069950;28;20044;-86
2023/07/08 12:31:20;;;;;;;5.60;2.97;;;31.80;90.40;;;;;;5069684;28;20119;-87
2023/07/08 12:33:47;;;;;;;4.82;3.15;;;31.80;90.10;;;;;;5052649;28;20101;-87
2023/07/08 12:36:19;;;;;;;5.07;2.72;;;31.80;90.20;;;;;;5069661;28;20051;-88
2023/07/08 12:38:48;;;;;;;6.43;3.20;;;31.80;89.40;;;;;;5069778;28;20040;-85
2023/07/08 12:41:23;;;;;;;6.50;3.17;;;31.80;90.00;;;;;;5103452;28;20121;-86
2023/07/08 12:43:51;;;;;;;5.95;3.15;;;31.90;89.40;;;;;;5090264;28;20060;-89
2023/07/08 12:46:22;;;;;;;7.35;3.03;;;32.00;89.70;;;;;;5074961;28;20040;-88
2023/07/08 12:48:49;;;;;;;5.47;3.10;;;31.90;88.90;;;;;;5090452;28;20040;-87
2023/07/08 12:51:27;;;;;;;6.60;3.40;;;31.90;89.00;;;;;;5079366;28;20047;-86
2023/07/08 12:53:54;;;;;;;7.25;3.50;;;32.00;89.10;;;;;;5122323;28;20525;-86
2023/07/08 12:56:23;;;;;;;6.10;3.08;;;32.00;89.60;;;;;;5085986;28;20032;-87
2023/07/08 12:58:57;;;;;;;6.47;3.40;;;32.10;89.30;;;;;;5079091;28;20083;-87
2023/07/08 13:01:28;;;;;;;8.30;3.35;;;32.10;87.60;;;;;;5090814;28;20045;-89
2023/07/08 13:03:59;;;;;;;6.72;3.25;;;32.00;87.50;;;;;;5098752;28;20039;-88